Ana Sayfa
METAR-TAF:

METAR-TAF

Havaalanları :

Livingston County Spencer J. Hardy Airport

Howell, Michigan, Amerika Birleşik Devletleri

Enlem: 42-37-46N, Boylam: 083-59-03W, yükseklik: 293 m

Güncel hava durumu gözlemi

Rapor saat 00:15 UTC de 14 dakika önce yapıldı.
Rüzgar güneydan 7 kt
Sıcaklık 7°C
Nem 76%
Basınç 1012 hPa
Görüş mesafesi: 16.1 km
8000 ft yükseklikte çok bulutlu

METAR: KOZW 090015Z AUTO 18007KT 10SM OVC080 07/03 A2987 RMK AO2 T00710034

Saat: 19:29 (00:29 UTC)


TAF: eksik

4.000'den fazla havaalanı için hava durumu gözlemleri ve tahminleri (METAR ve TAF raporları).

Kullanılabilir istasyonlar harita üzerinde sarı ve kırmızı noktalarla gösterilir.

İstasyonun adını görmek için fareyi noktanın üzerinde gezdirin.

Sonrasında hava gözlem ve tahminlerini görmek için tıklayın.

Haritayı değiştirmek için: yaklaştırmak için siyah artı işaretli yeşil düğmeye ve uzaklaştırmak için de eksi işaretli düğmeye hızla tıklayın; bitişik haritalar için yeşil okları kullanın.


METAR-TAF: